createdAt,value
2023-01-07T00:01:27.584Z,83.23
2023-01-07T00:03:54.042Z,84.42
2023-01-07T00:06:20.356Z,84.22
2023-01-07T00:08:46.696Z,83.24
2023-01-07T00:11:13.025Z,83.68
2023-01-07T00:13:39.378Z,85.42
2023-01-07T00:16:05.773Z,83.71
2023-01-07T00:18:32.090Z,83.87
2023-01-07T00:20:58.421Z,85.29
2023-01-07T00:23:24.765Z,85.57
2023-01-07T00:25:51.134Z,84.92
2023-01-07T00:28:17.476Z,85.36
2023-01-07T00:30:43.834Z,84.92
2023-01-07T00:33:10.232Z,86.04
2023-01-07T00:35:36.597Z,84.80
2023-01-07T00:38:02.972Z,84.36
2023-01-07T00:40:29.257Z,84.67
2023-01-07T00:42:55.662Z,84.71
2023-01-07T00:45:21.990Z,85.26
2023-01-07T00:47:48.356Z,84.14
2023-01-07T00:50:14.682Z,84.45
2023-01-07T00:52:41.032Z,85.35
2023-01-07T00:55:07.397Z,85.00
2023-01-07T00:57:33.780Z,84.78
2023-01-07T01:00:00.190Z,85.15
2023-01-07T01:02:26.564Z,86.32
2023-01-07T01:04:52.916Z,85.72
2023-01-07T01:07:19.643Z,84.96
2023-01-07T01:09:46.017Z,85.29
2023-01-07T01:12:12.364Z,85.66
2023-01-07T01:14:38.754Z,85.52
2023-01-07T01:17:05.098Z,86.54
2023-01-07T01:19:31.461Z,85.46
2023-01-07T01:21:57.844Z,86.55
2023-01-07T01:24:24.208Z,85.88
2023-01-07T01:26:50.589Z,84.92
2023-01-07T01:29:16.900Z,85.41
2023-01-07T01:31:43.451Z,85.60
2023-01-07T01:34:09.644Z,84.40
2023-01-07T01:36:36.043Z,83.18
2023-01-07T01:39:02.393Z,83.71
2023-01-07T01:41:28.738Z,83.96
2023-01-07T01:43:55.131Z,84.74
2023-01-07T01:46:21.544Z,84.94
2023-01-07T01:48:47.834Z,85.39
2023-01-07T01:51:14.188Z,86.19
2023-01-07T01:53:40.508Z,86.42
2023-01-07T01:56:06.920Z,86.56
2023-01-07T01:58:33.281Z,86.04
2023-01-07T02:00:59.721Z,85.79
2023-01-07T02:03:26.026Z,85.08
2023-01-07T02:05:52.354Z,84.69
2023-01-07T02:08:18.701Z,84.20
2023-01-07T02:10:45.085Z,84.96
2023-01-07T02:13:11.445Z,84.79
2023-01-07T02:15:37.813Z,84.11
2023-01-07T02:18:04.177Z,83.99
2023-01-07T02:20:30.538Z,84.79
2023-01-07T02:22:56.857Z,83.76
2023-01-07T02:25:23.227Z,84.49
2023-01-07T02:27:51.766Z,84.67
2023-01-07T02:30:18.120Z,83.84
2023-01-07T02:32:44.435Z,83.33
2023-01-07T02:35:10.819Z,83.58
2023-01-07T02:37:37.146Z,82.52
2023-01-07T02:40:03.484Z,82.36
2023-01-07T02:42:29.810Z,82.12
2023-01-07T02:44:56.176Z,82.34
2023-01-07T02:47:22.532Z,83.39
2023-01-07T02:49:48.905Z,84.37
2023-01-07T02:52:15.265Z,83.83
2023-01-07T02:54:41.628Z,82.24
2023-01-07T02:57:07.950Z,81.46
2023-01-07T02:59:34.306Z,81.55
2023-01-07T03:02:00.664Z,82.33
2023-01-07T03:04:27.106Z,83.87
2023-01-07T03:06:53.393Z,84.03
2023-01-07T03:09:19.835Z,83.95
2023-01-07T03:11:46.152Z,84.00
2023-01-07T03:14:12.537Z,83.71
2023-01-07T03:16:38.983Z,83.97
2023-01-07T03:19:05.230Z,84.55
2023-01-07T03:21:31.594Z,85.60
2023-01-07T03:23:57.937Z,84.98
2023-01-07T03:26:24.265Z,84.92
2023-01-07T03:28:50.664Z,84.51
2023-01-07T03:31:17.024Z,84.76
2023-01-07T03:33:43.364Z,85.17
2023-01-07T03:36:09.685Z,85.71
2023-01-07T03:38:36.069Z,86.66
2023-01-07T03:41:02.434Z,87.20
2023-01-07T03:43:28.768Z,87.78
2023-01-07T03:45:55.119Z,88.17
2023-01-07T03:48:21.574Z,88.20
2023-01-07T03:50:47.911Z,87.73
2023-01-07T03:53:14.273Z,87.63
2023-01-07T03:55:40.584Z,87.75
2023-01-07T03:58:06.986Z,88.10
2023-01-07T04:00:33.305Z,87.85
2023-01-07T04:02:59.657Z,88.16
2023-01-07T04:05:26.056Z,88.01
2023-01-07T04:07:52.371Z,87.88
2023-01-07T04:10:18.740Z,87.67
2023-01-07T04:12:45.114Z,88.02
2023-01-07T04:15:11.434Z,87.90
2023-01-07T04:17:37.820Z,87.57
2023-01-07T04:20:04.142Z,87.73
2023-01-07T04:22:30.480Z,88.12
2023-01-07T04:24:56.825Z,88.90
2023-01-07T04:27:23.174Z,88.98
2023-01-07T04:29:49.539Z,89.41
2023-01-07T04:32:15.982Z,88.84
2023-01-07T04:34:42.272Z,88.72
2023-01-07T04:37:08.681Z,88.99
2023-01-07T04:39:35.072Z,88.55
2023-01-07T04:42:03.851Z,87.64
2023-01-07T04:44:28.026Z,87.48
2023-01-07T04:46:54.350Z,87.32
2023-01-07T04:49:20.773Z,87.42
2023-01-07T04:51:47.075Z,87.33
2023-01-07T04:54:13.428Z,88.10
2023-01-07T04:56:39.769Z,87.17
2023-01-07T04:59:06.139Z,86.02
2023-01-07T05:01:32.591Z,84.97
2023-01-07T05:03:58.951Z,85.30
2023-01-07T05:06:25.195Z,86.16
2023-01-07T05:08:51.509Z,86.29
2023-01-07T05:11:17.903Z,86.21
2023-01-07T05:13:44.256Z,86.35
2023-01-07T05:16:10.596Z,86.40
2023-01-07T05:18:37.140Z,86.41
2023-01-07T05:21:03.435Z,86.41
2023-01-07T05:23:29.783Z,86.40
2023-01-07T05:25:56.136Z,85.97
2023-01-07T05:28:22.512Z,86.12
2023-01-07T05:30:49.032Z,86.62
2023-01-07T05:33:15.262Z,85.83
2023-01-07T05:35:41.647Z,86.16
2023-01-07T05:38:08.020Z,86.58
2023-01-07T05:40:34.346Z,86.15
2023-01-07T05:43:00.696Z,85.90
2023-01-07T05:45:27.081Z,85.48
2023-01-07T05:47:53.414Z,86.21
2023-01-07T05:50:19.752Z,85.00
2023-01-07T05:52:46.102Z,85.37
2023-01-07T05:55:12.417Z,85.06
2023-01-07T05:57:38.803Z,85.70
2023-01-07T06:00:05.139Z,86.36
2023-01-07T06:02:31.508Z,86.58
2023-01-07T06:04:57.889Z,87.08
2023-01-07T06:07:24.195Z,87.24
2023-01-07T06:09:50.596Z,87.20
2023-01-07T06:12:16.936Z,87.17
2023-01-07T06:14:43.321Z,86.98
2023-01-07T06:17:09.664Z,86.41
2023-01-07T06:19:36.021Z,85.87
2023-01-07T06:22:02.407Z,84.54
2023-01-07T06:24:28.742Z,84.02
2023-01-07T06:26:55.091Z,83.72
2023-01-07T06:29:21.418Z,83.22
2023-01-07T06:31:47.776Z,82.99
2023-01-07T06:34:14.166Z,81.40
2023-01-07T06:36:40.507Z,80.27
2023-01-07T06:39:06.836Z,80.06
2023-01-07T06:41:33.235Z,78.68
2023-01-07T06:43:59.599Z,77.57
2023-01-07T06:46:26.016Z,76.24
2023-01-07T06:48:52.380Z,76.07
2023-01-07T06:51:18.760Z,74.53
2023-01-07T06:53:45.126Z,75.15
2023-01-07T06:56:11.562Z,73.67
2023-01-07T06:58:37.913Z,74.18
2023-01-07T07:01:04.379Z,73.85
2023-01-07T07:03:30.637Z,72.43
2023-01-07T07:05:56.961Z,72.83
2023-01-07T07:08:23.289Z,72.75
2023-01-07T07:10:49.664Z,72.05
2023-01-07T07:13:15.983Z,71.09
2023-01-07T07:15:42.385Z,70.81
2023-01-07T07:18:08.732Z,70.83
2023-01-07T07:20:35.125Z,69.73
2023-01-07T07:23:01.489Z,68.91
2023-01-07T07:25:27.831Z,68.79
2023-01-07T07:27:54.181Z,67.77
2023-01-07T07:30:20.534Z,65.66
2023-01-07T07:32:46.904Z,66.65
2023-01-07T07:35:13.274Z,66.86
2023-01-07T07:37:39.637Z,67.31
2023-01-07T07:40:05.996Z,67.48
2023-01-07T07:42:32.355Z,67.34
2023-01-07T07:44:58.706Z,67.76
2023-01-07T07:47:25.033Z,67.16
2023-01-07T07:49:51.403Z,66.52
2023-01-07T07:52:17.743Z,66.60
2023-01-07T07:54:44.126Z,66.44
2023-01-07T07:57:10.470Z,66.24
2023-01-07T07:59:36.825Z,67.29
2023-01-07T08:02:03.230Z,64.98
2023-01-07T08:04:29.574Z,65.53
2023-01-07T08:06:55.912Z,66.82
2023-01-07T08:09:22.300Z,65.96
2023-01-07T08:11:48.612Z,64.98
2023-01-07T08:14:15.002Z,65.85
2023-01-07T08:16:41.381Z,64.66
2023-01-07T08:19:07.728Z,63.56
2023-01-07T08:21:34.053Z,63.80
2023-01-07T08:24:00.443Z,62.39
2023-01-07T08:26:26.770Z,61.14
2023-01-07T08:28:53.138Z,60.46
2023-01-07T08:31:19.558Z,60.66
2023-01-07T08:33:45.856Z,60.71
2023-01-07T08:36:22.582Z,61.16
2023-01-07T08:38:38.709Z,60.82
2023-01-07T08:41:05.075Z,61.92
2023-01-07T08:43:31.439Z,61.89
2023-01-07T08:45:57.805Z,62.22
2023-01-07T08:48:24.157Z,61.83
2023-01-07T08:50:50.541Z,61.67
2023-01-07T08:53:16.902Z,62.11
2023-01-07T08:55:43.257Z,61.95
2023-01-07T08:58:09.608Z,60.83
2023-01-07T09:00:35.997Z,60.39
2023-01-07T09:03:02.318Z,59.44
2023-01-07T09:05:28.632Z,58.57
2023-01-07T09:07:55.045Z,58.11
2023-01-07T09:10:21.409Z,57.47
2023-01-07T09:12:47.792Z,58.80
2023-01-07T09:15:14.120Z,59.76
2023-01-07T09:17:40.507Z,59.88
2023-01-07T09:20:06.893Z,59.34
2023-01-07T09:22:33.256Z,59.08
2023-01-07T09:24:59.606Z,58.51
2023-01-07T09:27:25.942Z,57.97
2023-01-07T09:29:52.277Z,58.04
2023-01-07T09:32:18.666Z,57.94
2023-01-07T09:34:45.032Z,58.51
2023-01-07T09:37:11.433Z,56.24
2023-01-07T09:39:37.812Z,54.79
2023-01-07T09:42:04.215Z,55.84
2023-01-07T09:44:30.520Z,55.76
2023-01-07T09:46:56.874Z,53.92
2023-01-07T09:49:23.267Z,54.02
2023-01-07T09:51:49.627Z,52.39
2023-01-07T09:54:16.007Z,53.04
2023-01-07T09:56:42.401Z,53.62
2023-01-07T09:59:08.773Z,54.02
2023-01-07T10:01:35.169Z,53.09
2023-01-07T10:04:01.600Z,53.28
2023-01-07T10:06:42.206Z,52.44
2023-01-07T10:08:54.280Z,51.71
2023-01-07T10:11:20.642Z,51.01
2023-01-07T10:13:47.017Z,50.07
2023-01-07T10:16:13.378Z,51.14
2023-01-07T10:18:39.678Z,51.40
2023-01-07T10:21:06.071Z,50.40
2023-01-07T10:23:32.391Z,49.75
2023-01-07T10:25:58.757Z,48.65
2023-01-07T10:28:25.129Z,49.64
2023-01-07T10:30:51.536Z,49.38
2023-01-07T10:33:17.915Z,49.53
2023-01-07T10:35:44.287Z,49.62
2023-01-07T10:38:10.650Z,49.11
2023-01-07T10:40:37.009Z,48.59
2023-01-07T10:43:03.339Z,48.84
2023-01-07T10:45:29.733Z,47.83
2023-01-07T10:47:56.009Z,48.01
2023-01-07T10:50:22.414Z,47.82
2023-01-07T10:52:48.761Z,46.72
2023-01-07T10:55:15.143Z,46.90
2023-01-07T10:57:41.464Z,46.75
2023-01-07T11:00:07.820Z,46.58
2023-01-07T11:02:34.195Z,46.09
2023-01-07T11:05:00.523Z,45.61
2023-01-07T11:07:26.886Z,44.62
2023-01-07T11:09:53.263Z,45.15
2023-01-07T11:12:19.586Z,45.99
2023-01-07T11:14:45.949Z,45.51
2023-01-07T11:17:12.319Z,44.56
2023-01-07T11:19:38.705Z,44.97
2023-01-07T11:22:05.031Z,45.24
2023-01-07T11:24:31.441Z,44.96
2023-01-07T11:26:57.758Z,44.15
2023-01-07T11:29:24.152Z,44.87
2023-01-07T11:31:50.589Z,44.42
2023-01-07T11:34:16.901Z,45.29
2023-01-07T11:36:43.268Z,45.06
2023-01-07T11:39:09.636Z,45.59
2023-01-07T11:41:36.010Z,45.91
2023-01-07T11:44:02.398Z,45.86
2023-01-07T11:46:28.845Z,46.19
2023-01-07T11:48:55.105Z,45.36
2023-01-07T11:51:21.448Z,45.78
2023-01-07T11:53:47.791Z,45.54
2023-01-07T11:56:14.139Z,45.43
2023-01-07T11:58:40.497Z,45.70
2023-01-07T12:01:06.912Z,45.82
2023-01-07T12:03:33.329Z,46.09
2023-01-07T12:05:59.888Z,45.83
2023-01-07T12:08:26.295Z,46.26
2023-01-07T12:10:52.608Z,46.78
2023-01-07T12:13:18.964Z,46.70
2023-01-07T12:15:45.296Z,46.42
2023-01-07T12:18:11.637Z,46.00
2023-01-07T12:20:38.016Z,45.85
2023-01-07T12:23:04.405Z,46.00
2023-01-07T12:25:31.127Z,45.16
2023-01-07T12:27:57.107Z,45.37
2023-01-07T12:30:23.464Z,45.40
2023-01-07T12:32:49.813Z,45.30
2023-01-07T12:35:16.186Z,45.12
2023-01-07T12:37:42.560Z,45.47
2023-01-07T12:40:08.944Z,45.37
2023-01-07T12:42:35.358Z,45.29
2023-01-07T12:45:01.676Z,45.81
2023-01-07T12:47:31.703Z,45.25
2023-01-07T12:49:54.413Z,45.83
2023-01-07T12:52:20.813Z,46.16
2023-01-07T12:54:47.176Z,45.03
2023-01-07T12:57:13.520Z,44.99
2023-01-07T12:59:45.659Z,45.05
2023-01-07T13:02:06.395Z,45.04
2023-01-07T13:04:32.693Z,44.52
2023-01-07T13:06:58.956Z,43.88
2023-01-07T13:09:25.283Z,44.18
2023-01-07T13:11:51.656Z,44.34
2023-01-07T13:14:17.970Z,44.63
2023-01-07T13:16:44.334Z,44.93
2023-01-07T13:19:10.652Z,43.97
2023-01-07T13:21:37.036Z,43.71
2023-01-07T13:24:03.406Z,43.13
2023-01-07T13:26:29.783Z,42.57
2023-01-07T13:28:56.152Z,42.74
2023-01-07T13:31:22.763Z,42.59
2023-01-07T13:33:49.066Z,42.79
2023-01-07T13:36:15.428Z,43.19
2023-01-07T13:38:41.834Z,43.01
2023-01-07T13:41:08.250Z,43.03
2023-01-07T13:43:34.561Z,42.87
2023-01-07T13:46:00.990Z,42.93
2023-01-07T13:48:27.356Z,43.60
2023-01-07T13:50:53.729Z,43.72
2023-01-07T13:53:20.099Z,43.37
2023-01-07T13:55:46.435Z,43.63
2023-01-07T13:58:12.809Z,44.37
2023-01-07T14:00:39.187Z,44.78
2023-01-07T14:03:05.612Z,45.77
2023-01-07T14:05:31.928Z,46.30
2023-01-07T14:07:58.253Z,46.84
2023-01-07T14:10:24.616Z,46.54
2023-01-07T14:12:50.967Z,46.73
2023-01-07T14:15:17.379Z,46.88
2023-01-07T14:17:43.685Z,46.95
2023-01-07T14:20:10.014Z,47.58
2023-01-07T14:22:36.355Z,47.95
2023-01-07T14:25:02.703Z,48.41
2023-01-07T14:27:29.085Z,48.48
2023-01-07T14:29:59.500Z,48.77
2023-01-07T14:32:21.769Z,49.25
2023-01-07T14:34:48.157Z,49.28
2023-01-07T14:37:14.519Z,49.82
2023-01-07T14:39:40.861Z,50.20
2023-01-07T14:42:07.269Z,50.25
2023-01-07T14:44:33.612Z,50.55
2023-01-07T14:47:00.105Z,50.89
2023-01-07T14:49:26.367Z,51.18
2023-01-07T14:51:54.329Z,51.43
2023-01-07T14:54:19.220Z,51.75
2023-01-07T14:56:45.684Z,51.95
2023-01-07T14:59:12.018Z,52.28
2023-01-07T15:01:38.462Z,52.16
2023-01-07T15:04:04.762Z,52.17
2023-01-07T15:06:31.085Z,52.69
2023-01-07T15:08:57.515Z,53.45
2023-01-07T15:11:23.834Z,53.84
2023-01-07T15:13:50.177Z,55.19
2023-01-07T15:16:16.529Z,56.24
2023-01-07T15:18:42.863Z,56.73
2023-01-07T15:21:09.243Z,57.29
2023-01-07T15:23:35.680Z,57.77
2023-01-07T15:26:02.005Z,58.25
2023-01-07T15:28:28.542Z,58.69
2023-01-07T15:30:54.884Z,59.01
2023-01-07T15:33:21.164Z,59.51
2023-01-07T15:35:47.499Z,59.77
2023-01-07T15:38:13.835Z,59.96
2023-01-07T15:40:40.155Z,60.11
2023-01-07T15:43:06.509Z,60.34
2023-01-07T15:45:32.852Z,60.58
2023-01-07T15:47:59.203Z,60.84
2023-01-07T15:50:25.521Z,61.14
2023-01-07T15:52:51.867Z,61.23
2023-01-07T15:55:18.225Z,61.36
2023-01-07T15:57:44.573Z,61.72
2023-01-07T16:00:10.897Z,62.32
2023-01-07T16:02:37.325Z,62.81
2023-01-07T16:05:03.696Z,63.29
2023-01-07T16:07:30.034Z,64.25
2023-01-07T16:09:56.370Z,64.28
2023-01-07T16:12:22.693Z,64.34
2023-01-07T16:14:49.033Z,64.37
2023-01-07T16:17:15.408Z,64.29
2023-01-07T16:19:41.775Z,64.63
2023-01-07T16:22:08.053Z,65.06
2023-01-07T16:24:34.402Z,65.56
2023-01-07T16:27:00.772Z,66.24
2023-01-07T16:29:27.114Z,66.33
2023-01-07T16:31:53.513Z,66.62
2023-01-07T16:34:19.871Z,67.06
2023-01-07T16:36:46.217Z,67.28
2023-01-07T16:39:12.598Z,67.64
2023-01-07T16:41:38.912Z,67.55
2023-01-07T16:44:05.249Z,67.83
2023-01-07T16:46:31.735Z,67.66
2023-01-07T16:48:58.083Z,68.14
2023-01-07T16:51:24.401Z,68.96
2023-01-07T16:53:50.742Z,69.65
2023-01-07T16:56:17.127Z,70.08
2023-01-07T16:58:43.460Z,70.23
2023-01-07T17:01:09.918Z,70.58
2023-01-07T17:03:36.180Z,70.93
2023-01-07T17:06:02.469Z,70.99
2023-01-07T17:08:28.843Z,71.07
2023-01-07T17:10:55.167Z,71.65
2023-01-07T17:13:21.511Z,72.43
2023-01-07T17:15:47.869Z,72.82
2023-01-07T17:18:14.207Z,73.25
2023-01-07T17:20:40.574Z,73.88
2023-01-07T17:23:08.304Z,74.22
2023-01-07T17:25:33.272Z,74.02
2023-01-07T17:27:59.606Z,74.22
2023-01-07T17:30:25.920Z,74.70
2023-01-07T17:32:52.299Z,75.58
2023-01-07T17:35:18.657Z,75.43
2023-01-07T17:37:44.996Z,75.66
2023-01-07T17:40:11.318Z,75.14
2023-01-07T17:42:37.694Z,75.19
2023-01-07T17:45:04.047Z,75.31
2023-01-07T17:47:30.430Z,75.82
2023-01-07T17:49:56.761Z,75.88
2023-01-07T17:52:23.130Z,75.83
2023-01-07T17:54:49.445Z,75.66
2023-01-07T17:57:15.797Z,75.63
2023-01-07T17:59:42.117Z,75.83
2023-01-07T18:02:08.619Z,76.20
2023-01-07T18:04:34.790Z,75.97
2023-01-07T18:07:01.172Z,75.91
2023-01-07T18:09:27.560Z,75.82
2023-01-07T18:11:53.941Z,75.66
2023-01-07T18:14:20.278Z,76.69
2023-01-07T18:16:46.677Z,77.32
2023-01-07T18:19:13.007Z,77.49
2023-01-07T18:21:39.371Z,77.19
2023-01-07T18:24:05.727Z,76.86
2023-01-07T18:26:32.115Z,76.73
2023-01-07T18:28:58.488Z,76.76
2023-01-07T18:31:24.920Z,76.52
2023-01-07T18:33:51.194Z,76.38
2023-01-07T18:36:17.535Z,76.67
2023-01-07T18:38:43.903Z,76.40
2023-01-07T18:41:10.270Z,76.53
2023-01-07T18:43:36.590Z,76.32
2023-01-07T18:46:03.044Z,76.00
2023-01-07T18:48:29.325Z,75.68
2023-01-07T18:50:55.752Z,75.38
2023-01-07T18:53:22.335Z,75.08
2023-01-07T18:55:48.712Z,75.29
2023-01-07T18:58:15.128Z,74.89
2023-01-07T19:00:41.573Z,74.75
2023-01-07T19:03:07.848Z,74.72
2023-01-07T19:05:34.196Z,74.70
2023-01-07T19:08:00.523Z,74.67
2023-01-07T19:10:26.902Z,74.46
2023-01-07T19:12:53.270Z,74.66
2023-01-07T19:15:19.673Z,75.07
2023-01-07T19:17:46.005Z,75.30
2023-01-07T19:20:12.404Z,75.26
2023-01-07T19:22:38.736Z,75.65
2023-01-07T19:25:05.121Z,75.75
2023-01-07T19:27:31.450Z,75.72
2023-01-07T19:29:57.832Z,76.07
2023-01-07T19:32:24.158Z,76.32
2023-01-07T19:34:50.497Z,76.40
2023-01-07T19:37:16.838Z,76.51
2023-01-07T19:39:43.171Z,76.66
2023-01-07T19:42:09.504Z,76.97
2023-01-07T19:44:35.884Z,76.88
2023-01-07T19:47:02.235Z,77.27
2023-01-07T19:49:28.616Z,77.24
2023-01-07T19:51:54.926Z,77.21
2023-01-07T19:54:21.392Z,77.70
2023-01-07T19:56:47.756Z,77.82
2023-01-07T19:59:14.098Z,78.06
2023-01-07T20:01:40.524Z,78.00
2023-01-07T20:04:06.810Z,78.02
2023-01-07T20:06:33.114Z,77.83
2023-01-07T20:08:59.491Z,77.82
2023-01-07T20:11:25.811Z,77.52
2023-01-07T20:13:52.178Z,77.44
2023-01-07T20:16:18.556Z,77.27
2023-01-07T20:18:44.872Z,77.44
2023-01-07T20:21:11.235Z,77.45
2023-01-07T20:23:37.532Z,77.30
2023-01-07T20:26:03.898Z,77.35
2023-01-07T20:28:30.251Z,77.33
2023-01-07T20:30:56.586Z,77.35
2023-01-07T20:33:22.930Z,77.22
2023-01-07T20:35:49.293Z,76.87
2023-01-07T20:38:15.642Z,76.78
2023-01-07T20:40:41.972Z,76.76
2023-01-07T20:43:08.315Z,76.78
2023-01-07T20:45:36.746Z,76.76
2023-01-07T20:48:01.011Z,77.02
2023-01-07T20:50:27.367Z,76.51
2023-01-07T20:52:53.763Z,76.34
2023-01-07T20:55:20.111Z,76.40
2023-01-07T20:57:46.484Z,76.95
2023-01-07T21:00:12.886Z,77.18
2023-01-07T21:02:39.362Z,77.04
2023-01-07T21:05:05.625Z,77.84
2023-01-07T21:07:32.015Z,79.25
2023-01-07T21:09:58.323Z,80.45
2023-01-07T21:12:24.674Z,81.24
2023-01-07T21:14:50.995Z,82.14
2023-01-07T21:17:17.393Z,83.00
2023-01-07T21:19:43.736Z,84.04
2023-01-07T21:22:10.087Z,85.11
2023-01-07T21:24:36.448Z,85.91
2023-01-07T21:27:02.966Z,86.33
2023-01-07T21:29:29.224Z,86.55
2023-01-07T21:31:55.699Z,86.65
2023-01-07T21:34:21.925Z,86.56
2023-01-07T21:36:48.316Z,86.71
2023-01-07T21:39:14.729Z,86.56
2023-01-07T21:41:41.082Z,86.52
2023-01-07T21:44:07.423Z,86.57
2023-01-07T21:46:33.809Z,86.45
2023-01-07T21:49:00.150Z,86.60
2023-01-07T21:51:26.542Z,86.46
2023-01-07T21:53:52.882Z,86.41
2023-01-07T21:56:19.284Z,86.08
2023-01-07T21:58:45.577Z,85.82
2023-01-07T22:01:12.003Z,85.43
2023-01-07T22:03:38.262Z,85.16
2023-01-07T22:06:04.789Z,85.25
2023-01-07T22:08:31.169Z,85.63
2023-01-07T22:10:57.550Z,86.08
2023-01-07T22:13:23.880Z,85.88
2023-01-07T22:15:50.261Z,86.09
2023-01-07T22:18:16.622Z,86.34
2023-01-07T22:20:42.943Z,86.46
2023-01-07T22:23:09.332Z,86.50
2023-01-07T22:25:35.664Z,86.35
2023-01-07T22:28:02.025Z,86.64
2023-01-07T22:30:28.359Z,86.59
2023-01-07T22:32:54.692Z,86.91
2023-01-07T22:35:21.070Z,86.73
2023-01-07T22:37:47.430Z,86.68
2023-01-07T22:40:13.772Z,86.86
2023-01-07T22:42:40.134Z,86.86
2023-01-07T22:45:06.517Z,86.67
2023-01-07T22:47:32.860Z,86.72
2023-01-07T22:49:59.204Z,86.67
2023-01-07T22:52:25.579Z,86.40
2023-01-07T22:54:51.933Z,86.38
2023-01-07T22:57:18.288Z,86.85
2023-01-07T22:59:47.016Z,86.89
2023-01-07T23:02:10.942Z,87.22
2023-01-07T23:04:37.328Z,87.29
2023-01-07T23:07:03.681Z,86.93
2023-01-07T23:09:30.053Z,86.70
2023-01-07T23:11:56.376Z,86.77
2023-01-07T23:14:22.785Z,87.05
2023-01-07T23:16:49.138Z,87.37
2023-01-07T23:19:15.840Z,87.39
2023-01-07T23:21:41.772Z,87.41
2023-01-07T23:24:08.190Z,87.34
2023-01-07T23:26:34.538Z,87.57
2023-01-07T23:29:00.909Z,87.52
2023-01-07T23:31:27.295Z,87.77
2023-01-07T23:33:53.593Z,87.87
2023-01-07T23:36:19.947Z,88.02
2023-01-07T23:38:46.329Z,88.17
2023-01-07T23:41:12.636Z,88.47
2023-01-07T23:43:38.974Z,88.67
2023-01-07T23:46:05.369Z,89.08
2023-01-07T23:48:31.731Z,89.50
2023-01-07T23:50:58.076Z,89.54
2023-01-07T23:53:24.411Z,89.63
2023-01-07T23:55:50.771Z,89.74
2023-01-07T23:58:17.140Z,89.60
